createdAt,value
2023-05-10T00:00:54.194Z,8.11
2023-05-10T00:01:55.939Z,7.62
2023-05-10T00:02:57.762Z,7.09
2023-05-10T00:03:59.540Z,6.97
2023-05-10T00:05:01.308Z,7.20
2023-05-10T00:06:03.086Z,7.06
2023-05-10T00:07:04.877Z,7.32
2023-05-10T00:08:06.656Z,7.23
2023-05-10T00:09:08.502Z,7.35
2023-05-10T00:10:10.399Z,7.50
2023-05-10T00:11:12.183Z,7.71
2023-05-10T00:12:13.983Z,7.49
2023-05-10T00:13:15.835Z,7.75
2023-05-10T00:14:17.638Z,7.09
2023-05-10T00:15:19.284Z,7.82
2023-05-10T00:16:21.446Z,7.75
2023-05-10T00:17:23.206Z,7.49
2023-05-10T00:18:24.889Z,7.65
2023-05-10T00:19:26.626Z,7.69
2023-05-10T00:20:28.413Z,7.79
2023-05-10T00:21:30.142Z,7.86
2023-05-10T00:22:31.903Z,8.62
2023-05-10T00:23:33.562Z,7.61
2023-05-10T00:24:35.390Z,8.55
2023-05-10T00:25:37.194Z,8.02
2023-05-10T00:26:38.978Z,7.73
2023-05-10T00:27:40.773Z,8.65
2023-05-10T00:28:42.459Z,9.11
2023-05-10T00:29:44.278Z,8.75
2023-05-10T00:30:46.081Z,8.83
2023-05-10T00:31:47.788Z,8.91
2023-05-10T00:32:49.677Z,8.41
2023-05-10T00:33:51.344Z,8.31
2023-05-10T00:34:53.163Z,7.79
2023-05-10T00:35:54.833Z,8.57
2023-05-10T00:36:56.634Z,8.29
2023-05-10T00:37:58.328Z,8.92
2023-05-10T00:39:00.028Z,8.17
2023-05-10T00:40:01.828Z,8.14
2023-05-10T00:41:03.611Z,8.38
2023-05-10T00:42:05.429Z,8.05
2023-05-10T00:43:07.289Z,8.23
2023-05-10T00:44:09.089Z,8.65
2023-05-10T00:45:10.802Z,7.46
2023-05-10T00:46:12.724Z,7.42
2023-05-10T00:47:14.387Z,7.35
2023-05-10T00:48:16.110Z,7.14
2023-05-10T00:49:17.799Z,8.31
2023-05-10T00:50:19.729Z,6.80
2023-05-10T00:51:21.414Z,6.88
2023-05-10T00:52:23.116Z,6.81
2023-05-10T00:53:24.897Z,6.25
2023-05-10T00:54:26.594Z,6.91
2023-05-10T00:55:28.337Z,6.51
2023-05-10T00:56:30.240Z,6.03
2023-05-10T00:57:32.031Z,6.63
2023-05-10T00:58:33.829Z,6.38
2023-05-10T00:59:35.628Z,6.79
2023-05-10T01:00:37.478Z,6.19
2023-05-10T01:01:39.179Z,5.99
2023-05-10T01:02:41.005Z,6.64
2023-05-10T01:03:42.749Z,6.87
2023-05-10T01:04:44.620Z,6.96
2023-05-10T01:05:46.482Z,7.11
2023-05-10T01:06:48.281Z,7.29
2023-05-10T01:07:50.089Z,7.30
2023-05-10T01:08:51.863Z,7.01
2023-05-10T01:09:53.663Z,6.92
2023-05-10T01:10:55.499Z,7.07
2023-05-10T01:11:57.312Z,7.77
2023-05-10T01:12:59.011Z,6.97
2023-05-10T01:14:00.672Z,7.01
2023-05-10T01:15:02.360Z,7.01
2023-05-10T01:16:04.420Z,7.59
2023-05-10T01:17:06.112Z,6.79
2023-05-10T01:18:07.807Z,7.25
2023-05-10T01:19:09.479Z,6.06
2023-05-10T01:20:11.290Z,7.27
2023-05-10T01:21:13.010Z,6.70
2023-05-10T01:22:14.718Z,6.99
2023-05-10T01:23:16.513Z,7.03
2023-05-10T01:24:18.214Z,6.74
2023-05-10T01:25:19.922Z,7.12
2023-05-10T01:26:21.732Z,6.57
2023-05-10T01:27:23.419Z,7.20
2023-05-10T01:28:25.311Z,6.71
2023-05-10T01:29:27.013Z,6.57
2023-05-10T01:30:28.813Z,6.15
2023-05-10T01:31:30.617Z,6.73
2023-05-10T01:32:32.365Z,5.71
2023-05-10T01:33:34.223Z,4.49
2023-05-10T01:34:35.915Z,4.59
2023-05-10T01:35:37.625Z,5.17
2023-05-10T01:36:39.448Z,4.09
2023-05-10T01:37:41.136Z,4.50
2023-05-10T01:38:42.857Z,4.36
2023-05-10T01:39:44.521Z,4.16
2023-05-10T01:40:46.327Z,4.13
2023-05-10T01:41:48.044Z,4.27
2023-05-10T01:42:49.777Z,4.41
2023-05-10T01:43:51.450Z,4.75
2023-05-10T01:44:53.146Z,5.29
2023-05-10T01:45:55.045Z,4.94
2023-05-10T01:46:56.957Z,4.50
2023-05-10T01:47:58.700Z,4.03
2023-05-10T01:49:00.361Z,4.53
2023-05-10T01:50:02.155Z,4.76
2023-05-10T01:51:03.951Z,4.34
2023-05-10T01:52:05.783Z,4.84
2023-05-10T01:53:07.586Z,4.63
2023-05-10T01:54:09.273Z,4.73
2023-05-10T01:55:10.972Z,4.52
2023-05-10T01:56:12.771Z,4.31
2023-05-10T01:57:14.509Z,4.78
2023-05-10T01:58:16.203Z,5.24
2023-05-10T01:59:17.983Z,5.09
2023-05-10T02:00:19.774Z,5.08
2023-05-10T02:01:21.638Z,5.11
2023-05-10T02:02:23.404Z,5.01
2023-05-10T02:03:25.253Z,4.71
2023-05-10T02:04:27.102Z,5.59
2023-05-10T02:05:28.894Z,4.89
2023-05-10T02:06:30.796Z,5.23
2023-05-10T02:07:32.582Z,5.19
2023-05-10T02:08:34.282Z,4.65
2023-05-10T02:09:35.978Z,4.56
2023-05-10T02:10:37.768Z,4.71
2023-05-10T02:11:39.451Z,5.09
2023-05-10T02:12:41.411Z,4.48
2023-05-10T02:13:43.208Z,4.77
2023-05-10T02:14:44.996Z,4.47
2023-05-10T02:15:46.779Z,4.39
2023-05-10T02:16:48.737Z,4.83
2023-05-10T02:17:50.501Z,4.21
2023-05-10T02:18:52.329Z,4.51
2023-05-10T02:19:54.117Z,4.41
2023-05-10T02:20:55.914Z,4.15
2023-05-10T02:21:57.613Z,4.30
2023-05-10T02:22:59.437Z,4.77
2023-05-10T02:24:01.130Z,4.95
2023-05-10T02:25:02.817Z,5.76
2023-05-10T02:26:04.706Z,5.49
2023-05-10T02:27:06.498Z,6.31
2023-05-10T02:28:08.338Z,6.34
2023-05-10T02:29:10.150Z,5.91
2023-05-10T02:30:13.308Z,6.19
2023-05-10T02:31:15.166Z,6.06
2023-05-10T02:32:17.009Z,5.81
2023-05-10T02:33:18.861Z,5.49
2023-05-10T02:34:20.746Z,5.68
2023-05-10T02:35:22.570Z,5.44
2023-05-10T02:36:24.346Z,5.39
2023-05-10T02:37:26.048Z,5.04
2023-05-10T02:38:27.856Z,5.23
2023-05-10T02:39:29.738Z,4.30
2023-05-10T02:40:31.548Z,4.46
2023-05-10T02:41:33.352Z,4.77
2023-05-10T02:42:35.144Z,4.44
2023-05-10T02:43:36.863Z,4.13
2023-05-10T02:44:38.654Z,4.12
2023-05-10T02:45:40.341Z,3.59
2023-05-10T02:46:42.154Z,3.82
2023-05-10T02:47:43.880Z,4.04
2023-05-10T02:48:45.577Z,3.82
2023-05-10T02:49:47.350Z,3.14
2023-05-10T02:50:49.151Z,4.09
2023-05-10T02:51:50.845Z,3.69
2023-05-10T02:52:52.646Z,4.45
2023-05-10T02:53:54.376Z,4.11
2023-05-10T02:54:56.089Z,4.16
2023-05-10T02:55:57.853Z,4.34
2023-05-10T02:56:59.659Z,3.87
2023-05-10T02:58:01.350Z,4.37
2023-05-10T02:59:03.070Z,5.01
2023-05-10T03:00:04.880Z,4.67
2023-05-10T03:01:06.690Z,4.45
2023-05-10T03:02:08.451Z,4.81
2023-05-10T03:03:10.251Z,4.40
2023-05-10T03:04:12.109Z,4.48
2023-05-10T03:05:13.875Z,4.65
2023-05-10T03:06:15.686Z,4.46
2023-05-10T03:07:17.982Z,4.83
2023-05-10T03:08:19.652Z,4.52
2023-05-10T03:09:21.379Z,4.35
2023-05-10T03:10:23.177Z,4.50
2023-05-10T03:11:24.956Z,4.40
2023-05-10T03:12:26.744Z,5.17
2023-05-10T03:13:28.643Z,5.58
2023-05-10T03:14:30.568Z,5.76
2023-05-10T03:15:32.342Z,5.44
2023-05-10T03:16:34.206Z,5.55
2023-05-10T03:17:35.967Z,6.39
2023-05-10T03:18:37.707Z,7.70
2023-05-10T03:19:39.439Z,6.83
2023-05-10T03:20:41.212Z,7.28
2023-05-10T03:21:42.891Z,7.14
2023-05-10T03:22:44.582Z,6.83
2023-05-10T03:23:46.366Z,7.29
2023-05-10T03:24:48.210Z,7.42
2023-05-10T03:25:49.898Z,6.77
2023-05-10T03:26:51.689Z,7.20
2023-05-10T03:27:53.476Z,6.88
2023-05-10T03:28:55.278Z,6.59
2023-05-10T03:29:57.091Z,6.70
2023-05-10T03:30:58.953Z,5.99
2023-05-10T03:32:00.773Z,5.51
2023-05-10T03:33:02.515Z,6.17
2023-05-10T03:34:04.256Z,6.99
2023-05-10T03:35:05.968Z,6.19
2023-05-10T03:36:07.994Z,5.78
2023-05-10T03:37:09.647Z,5.58
2023-05-10T03:38:11.433Z,5.40
2023-05-10T03:39:13.132Z,5.47
2023-05-10T03:40:15.319Z,5.86
2023-05-10T03:41:17.349Z,5.12
2023-05-10T03:42:19.028Z,5.24
2023-05-10T03:43:20.744Z,5.27
2023-05-10T03:44:22.518Z,4.92
2023-05-10T03:45:24.248Z,4.56
2023-05-10T03:46:26.089Z,4.37
2023-05-10T03:47:27.923Z,4.47
2023-05-10T03:48:29.597Z,4.50
2023-05-10T03:49:31.399Z,5.35
2023-05-10T03:50:33.223Z,4.13
2023-05-10T03:51:35.000Z,3.99
2023-05-10T03:52:36.823Z,3.55
2023-05-10T03:53:38.704Z,3.79
2023-05-10T03:54:40.501Z,3.53
2023-05-10T03:55:42.337Z,3.89
2023-05-10T03:56:44.111Z,3.70
2023-05-10T03:57:45.907Z,3.09
2023-05-10T03:58:47.592Z,2.93
2023-05-10T03:59:49.397Z,2.67
2023-05-10T04:00:51.223Z,2.28
2023-05-10T04:01:52.979Z,2.74
2023-05-10T04:02:54.767Z,3.04
2023-05-10T04:03:56.542Z,2.28
2023-05-10T04:04:58.430Z,2.67
2023-05-10T04:06:00.260Z,2.49
2023-05-10T04:07:02.069Z,2.36
2023-05-10T04:08:03.849Z,2.39
2023-05-10T04:09:05.639Z,2.15
2023-05-10T04:10:07.534Z,2.26
2023-05-10T04:11:09.265Z,2.30
2023-05-10T04:12:11.235Z,2.33
2023-05-10T04:13:13.076Z,2.30
2023-05-10T04:14:14.837Z,2.21
2023-05-10T04:15:16.529Z,2.21
2023-05-10T04:16:18.370Z,2.14
2023-05-10T04:17:20.088Z,2.06
2023-05-10T04:18:21.949Z,2.45
2023-05-10T04:19:23.722Z,1.94
2023-05-10T04:20:25.536Z,2.21
2023-05-10T04:21:27.348Z,2.34
2023-05-10T04:22:29.041Z,2.01
2023-05-10T04:23:30.714Z,2.06
2023-05-10T04:24:32.402Z,2.25
2023-05-10T04:25:34.094Z,2.50
2023-05-10T04:26:35.902Z,2.46
2023-05-10T04:27:37.617Z,2.55
2023-05-10T04:28:39.298Z,2.57
2023-05-10T04:29:41.005Z,2.38
2023-05-10T04:30:42.831Z,2.29
2023-05-10T04:31:44.703Z,1.97
2023-05-10T04:32:46.593Z,2.09
2023-05-10T04:33:48.479Z,2.02
2023-05-10T04:34:50.347Z,1.96
2023-05-10T04:35:52.180Z,2.39
2023-05-10T04:36:54.093Z,1.97
2023-05-10T04:37:55.899Z,2.20
2023-05-10T04:38:57.576Z,2.11
2023-05-10T04:39:59.361Z,1.77
2023-05-10T04:41:01.163Z,1.93
2023-05-10T04:42:02.887Z,1.91
2023-05-10T04:43:04.585Z,1.72
2023-05-10T04:44:06.373Z,2.39
2023-05-10T04:45:08.166Z,1.81
2023-05-10T04:46:10.207Z,1.77
2023-05-10T04:47:12.788Z,1.82
2023-05-10T04:48:14.712Z,1.89
2023-05-10T04:49:16.493Z,2.02
2023-05-10T04:50:18.547Z,2.52
2023-05-10T04:51:20.454Z,2.05
2023-05-10T04:52:22.183Z,1.98
2023-05-10T04:53:23.859Z,2.11
2023-05-10T04:54:25.550Z,2.71
2023-05-10T04:55:27.355Z,2.24
2023-05-10T04:56:29.132Z,2.11
2023-05-10T04:57:30.961Z,2.45
2023-05-10T04:58:32.759Z,2.44
2023-05-10T04:59:34.556Z,2.31
2023-05-10T05:00:36.342Z,2.19
2023-05-10T05:01:39.212Z,2.43
2023-05-10T05:02:41.205Z,2.33
2023-05-10T05:03:43.077Z,2.83
2023-05-10T05:04:44.754Z,2.15
2023-05-10T05:05:46.428Z,2.50
2023-05-10T05:06:48.219Z,2.19
2023-05-10T05:07:49.968Z,2.57
2023-05-10T05:08:51.666Z,3.19
2023-05-10T05:09:53.478Z,2.53
2023-05-10T05:10:55.252Z,2.24
2023-05-10T05:11:57.049Z,2.41
2023-05-10T05:12:58.791Z,3.39
2023-05-10T05:14:00.639Z,2.88
2023-05-10T05:15:02.397Z,2.54
2023-05-10T05:16:04.289Z,2.49
2023-05-10T05:17:05.994Z,2.18
2023-05-10T05:18:07.886Z,2.12
2023-05-10T05:19:09.753Z,2.39
2023-05-10T05:20:11.750Z,2.35
2023-05-10T05:21:13.534Z,2.28
2023-05-10T05:22:15.718Z,2.57
2023-05-10T05:23:17.981Z,2.47
2023-05-10T05:24:19.841Z,2.64
2023-05-10T05:25:21.677Z,3.35
2023-05-10T05:26:23.488Z,2.63
2023-05-10T05:27:25.286Z,2.67
2023-05-10T05:28:27.134Z,2.46
2023-05-10T05:29:28.816Z,2.56
2023-05-10T05:30:30.762Z,2.05
2023-05-10T05:31:32.506Z,2.59
2023-05-10T05:32:34.293Z,2.32
2023-05-10T05:33:36.171Z,1.84
2023-05-10T05:34:37.871Z,1.67
2023-05-10T05:35:39.666Z,1.75
2023-05-10T05:36:41.460Z,2.11
2023-05-10T05:37:43.284Z,2.47
2023-05-10T05:38:45.092Z,2.26
2023-05-10T05:39:46.873Z,2.15
2023-05-10T05:40:48.683Z,2.23
2023-05-10T05:41:50.361Z,2.78
2023-05-10T05:42:52.209Z,2.38
2023-05-10T05:43:53.937Z,1.93
2023-05-10T05:44:55.652Z,1.91
2023-05-10T05:45:57.319Z,1.94
2023-05-10T05:46:59.119Z,1.49
2023-05-10T05:48:00.898Z,1.76
2023-05-10T05:49:02.773Z,1.57
2023-05-10T05:50:04.662Z,1.54
2023-05-10T05:51:07.400Z,1.81
2023-05-10T05:52:09.362Z,1.40
2023-05-10T05:53:11.167Z,1.76
2023-05-10T05:54:12.900Z,1.66
2023-05-10T05:55:14.697Z,1.63
2023-05-10T05:56:16.694Z,1.51
2023-05-10T05:57:18.493Z,1.64
2023-05-10T05:58:20.253Z,1.67
2023-05-10T05:59:22.091Z,1.45
2023-05-10T06:00:23.892Z,2.12
2023-05-10T06:01:25.691Z,1.89
2023-05-10T06:02:27.576Z,2.01
2023-05-10T06:03:29.622Z,2.07
2023-05-10T06:04:31.441Z,2.43
2023-05-10T06:05:33.353Z,1.87
2023-05-10T06:06:35.179Z,1.79
2023-05-10T06:07:37.055Z,1.72
2023-05-10T06:08:38.809Z,2.15
2023-05-10T06:09:40.724Z,1.95
2023-05-10T06:10:42.580Z,2.09
2023-05-10T06:11:44.293Z,2.34
2023-05-10T06:12:46.092Z,1.87
2023-05-10T06:13:47.775Z,1.92
2023-05-10T06:14:49.469Z,2.53
2023-05-10T06:15:51.161Z,2.49
2023-05-10T06:16:53.079Z,2.44
2023-05-10T06:17:54.916Z,2.19
2023-05-10T06:18:56.681Z,2.47
2023-05-10T06:19:58.532Z,2.25
2023-05-10T06:21:00.314Z,2.02
2023-05-10T06:22:02.128Z,2.29
2023-05-10T06:23:03.910Z,2.20
2023-05-10T06:24:05.600Z,1.84
2023-05-10T06:25:07.439Z,1.96
2023-05-10T06:26:09.741Z,1.86
2023-05-10T06:27:11.460Z,1.94
2023-05-10T06:28:13.138Z,2.35
2023-05-10T06:29:14.946Z,2.23
2023-05-10T06:30:17.020Z,2.80
2023-05-10T06:31:18.852Z,2.62
2023-05-10T06:32:20.697Z,3.10
2023-05-10T06:33:22.477Z,2.98
2023-05-10T06:34:24.187Z,2.75
2023-05-10T06:35:25.917Z,2.75
2023-05-10T06:36:28.032Z,2.35
2023-05-10T06:37:29.824Z,1.93
2023-05-10T06:38:31.508Z,1.87
2023-05-10T06:39:33.326Z,2.05
2023-05-10T06:40:35.143Z,2.81
2023-05-10T06:41:36.836Z,2.49
2023-05-10T06:42:38.620Z,2.71
2023-05-10T06:43:40.423Z,3.75
2023-05-10T06:44:42.252Z,3.62
2023-05-10T06:45:43.964Z,3.72
2023-05-10T06:46:45.808Z,2.51
2023-05-10T06:47:47.516Z,1.79
2023-05-10T06:48:49.377Z,1.62
2023-05-10T06:49:51.218Z,2.29
2023-05-10T06:50:53.061Z,1.92
2023-05-10T06:51:54.852Z,1.88
2023-05-10T06:52:56.649Z,1.97
2023-05-10T06:53:58.339Z,1.85
2023-05-10T06:55:00.058Z,1.34
2023-05-10T06:56:01.903Z,1.51
2023-05-10T06:57:04.163Z,1.27
2023-05-10T06:58:07.229Z,1.42
2023-05-10T06:59:09.068Z,1.21
2023-05-10T07:00:10.971Z,1.51
2023-05-10T07:01:12.884Z,1.65
2023-05-10T07:02:14.772Z,1.88
2023-05-10T07:03:16.772Z,1.77
2023-05-10T07:04:18.708Z,2.18
2023-05-10T07:05:20.947Z,3.01
2023-05-10T07:06:32.927Z,3.11
2023-05-10T07:07:26.667Z,2.46
2023-05-10T07:08:28.368Z,2.46
2023-05-10T07:09:30.152Z,2.06
2023-05-10T07:10:31.966Z,1.87
2023-05-10T07:11:33.859Z,2.35
2023-05-10T07:12:35.577Z,2.13
2023-05-10T07:13:37.268Z,1.28
2023-05-10T07:14:39.142Z,1.71
2023-05-10T07:15:40.910Z,3.11
2023-05-10T07:16:42.929Z,3.63
2023-05-10T07:17:46.074Z,3.79
2023-05-10T07:18:48.086Z,3.99
2023-05-10T07:19:49.888Z,5.29
2023-05-10T07:20:51.705Z,4.72
2023-05-10T07:21:53.490Z,3.91
2023-05-10T07:22:55.277Z,5.01
2023-05-10T07:23:56.975Z,4.37
2023-05-10T07:24:58.798Z,6.43
2023-05-10T07:26:00.473Z,6.51
2023-05-10T07:27:02.317Z,3.71
2023-05-10T07:28:04.078Z,3.56
2023-05-10T07:29:05.853Z,3.97
2023-05-10T07:30:07.855Z,3.35
2023-05-10T07:31:09.609Z,2.62
2023-05-10T07:32:11.517Z,2.39
2023-05-10T07:33:13.426Z,2.59
2023-05-10T07:34:15.255Z,1.76
2023-05-10T07:35:17.207Z,1.59
2023-05-10T07:36:19.147Z,1.35
2023-05-10T07:37:20.875Z,1.81
2023-05-10T07:38:22.565Z,1.85
2023-05-10T07:39:27.275Z,2.03
2023-05-10T07:40:27.830Z,1.86
2023-05-10T07:41:29.663Z,1.84
2023-05-10T07:42:31.438Z,1.85
2023-05-10T07:43:33.135Z,2.47
2023-05-10T07:44:34.814Z,2.59
2023-05-10T07:45:36.752Z,2.93
2023-05-10T07:46:38.513Z,3.03
2023-05-10T07:47:40.365Z,2.70
2023-05-10T07:48:42.109Z,2.51
2023-05-10T07:49:43.800Z,2.24
2023-05-10T07:50:45.615Z,1.89
2023-05-10T07:51:47.425Z,1.74
2023-05-10T07:52:49.251Z,1.93
2023-05-10T07:53:50.929Z,2.00
2023-05-10T07:54:52.616Z,1.77
2023-05-10T07:55:54.411Z,2.05
2023-05-10T07:56:56.209Z,3.49
2023-05-10T07:57:58.139Z,2.05
2023-05-10T07:58:59.910Z,2.11
2023-05-10T08:00:02.123Z,2.06
2023-05-10T08:01:03.878Z,2.32
2023-05-10T08:02:05.699Z,2.69
2023-05-10T08:03:07.622Z,3.25
2023-05-10T08:04:09.615Z,3.28
2023-05-10T08:05:11.383Z,3.21
2023-05-10T08:06:14.131Z,3.05
2023-05-10T08:07:15.893Z,3.06
2023-05-10T08:08:17.703Z,2.74
2023-05-10T08:09:19.510Z,2.50
2023-05-10T08:10:21.344Z,2.93
2023-05-10T08:11:23.197Z,2.58
2023-05-10T08:12:24.988Z,2.46
2023-05-10T08:13:26.722Z,2.35
2023-05-10T08:14:28.531Z,2.05
2023-05-10T08:15:30.312Z,2.36
2023-05-10T08:16:32.342Z,2.29
2023-05-10T08:17:34.143Z,1.90
2023-05-10T08:18:35.852Z,1.59
2023-05-10T08:19:37.494Z,1.52
2023-05-10T08:20:39.392Z,1.25
2023-05-10T08:21:41.197Z,1.50
2023-05-10T08:22:42.996Z,1.23
2023-05-10T08:23:45.115Z,1.55
2023-05-10T08:24:47.023Z,1.58
2023-05-10T08:25:48.709Z,1.57
2023-05-10T08:26:50.496Z,1.82
2023-05-10T08:27:52.290Z,1.96
2023-05-10T08:28:54.014Z,2.20
2023-05-10T08:29:55.696Z,1.93
2023-05-10T08:30:57.503Z,1.95
2023-05-10T08:31:59.273Z,1.71
2023-05-10T08:33:01.275Z,1.43
2023-05-10T08:34:03.069Z,1.57
2023-05-10T08:35:04.857Z,1.45
2023-05-10T08:36:06.754Z,1.49
2023-05-10T08:37:08.548Z,1.47
2023-05-10T08:38:10.328Z,1.62
2023-05-10T08:39:23.085Z,1.61
2023-05-10T08:40:15.847Z,2.23
2023-05-10T08:41:17.659Z,1.39
2023-05-10T08:42:19.567Z,1.42
2023-05-10T08:43:21.393Z,1.25
2023-05-10T08:44:23.217Z,1.37
2023-05-10T08:45:25.008Z,1.55
2023-05-10T08:46:26.861Z,1.20
2023-05-10T08:47:28.628Z,1.46
2023-05-10T08:48:30.495Z,1.40
2023-05-10T08:49:32.301Z,1.33
2023-05-10T08:50:34.102Z,1.43
2023-05-10T08:51:35.874Z,1.07
2023-05-10T08:52:37.673Z,1.39
2023-05-10T08:53:39.454Z,1.55
2023-05-10T08:54:41.359Z,1.23
2023-05-10T08:55:43.130Z,1.71
2023-05-10T08:56:44.942Z,1.33
2023-05-10T08:57:46.724Z,1.88
2023-05-10T08:58:48.513Z,1.33
2023-05-10T08:59:50.343Z,1.41
2023-05-10T09:00:52.176Z,2.39
2023-05-10T09:01:53.940Z,1.22
2023-05-10T09:02:55.832Z,1.42
2023-05-10T09:03:57.691Z,1.35
2023-05-10T09:04:59.732Z,1.62
2023-05-10T09:06:01.683Z,1.92
2023-05-10T09:07:03.447Z,1.82
2023-05-10T09:08:05.253Z,2.11
2023-05-10T09:09:07.064Z,2.73
2023-05-10T09:10:10.407Z,1.98
2023-05-10T09:11:12.227Z,1.84
2023-05-10T09:12:13.931Z,2.15
2023-05-10T09:13:15.714Z,1.67
2023-05-10T09:14:17.501Z,2.05
2023-05-10T09:15:19.558Z,1.89
2023-05-10T09:16:22.429Z,1.56
2023-05-10T09:17:24.640Z,1.67
2023-05-10T09:18:28.046Z,1.69
2023-05-10T09:19:30.024Z,2.07
2023-05-10T09:20:31.877Z,2.19
2023-05-10T09:21:33.554Z,2.01
2023-05-10T09:22:35.389Z,2.05
2023-05-10T09:23:37.134Z,1.55
2023-05-10T09:24:38.927Z,1.70
2023-05-10T09:25:40.767Z,1.89
2023-05-10T09:26:42.633Z,1.86
2023-05-10T09:27:44.425Z,1.91
2023-05-10T09:28:46.215Z,1.57
2023-05-10T09:29:48.009Z,1.23
2023-05-10T09:30:49.880Z,1.80
2023-05-10T09:31:51.539Z,1.87
2023-05-10T09:32:53.382Z,2.04
2023-05-10T09:33:55.127Z,1.63
2023-05-10T09:34:56.833Z,1.23
2023-05-10T09:35:58.676Z,1.24
2023-05-10T09:37:00.486Z,1.98
2023-05-10T09:38:02.284Z,1.66
2023-05-10T09:39:04.092Z,2.07
2023-05-10T09:40:06.087Z,2.11
2023-05-10T09:41:07.902Z,1.56
2023-05-10T09:42:09.775Z,1.87
2023-05-10T09:43:11.600Z,1.89
2023-05-10T09:44:13.308Z,1.67
2023-05-10T09:45:15.278Z,2.03
2023-05-10T09:46:17.414Z,2.17
2023-05-10T09:47:19.249Z,2.31
2023-05-10T09:48:21.050Z,2.29
2023-05-10T09:49:22.846Z,3.08
2023-05-10T09:50:24.636Z,3.02
2023-05-10T09:51:26.638Z,2.45
2023-05-10T09:52:28.430Z,1.99
2023-05-10T09:53:30.212Z,1.59
2023-05-10T09:54:32.006Z,2.26
2023-05-10T09:55:33.696Z,2.28
2023-05-10T09:56:35.647Z,1.73
2023-05-10T09:57:37.510Z,1.57
2023-05-10T09:58:39.315Z,1.39
2023-05-10T09:59:41.111Z,1.33
2023-05-10T10:00:42.939Z,1.29
2023-05-10T10:01:44.685Z,1.41
2023-05-10T10:02:46.604Z,1.40
2023-05-10T10:03:48.433Z,1.73
2023-05-10T10:04:50.365Z,1.76
2023-05-10T10:05:52.154Z,1.54
2023-05-10T10:06:53.992Z,1.54
2023-05-10T10:07:55.772Z,1.47
2023-05-10T10:08:57.575Z,1.67
2023-05-10T10:09:59.271Z,1.22
2023-05-10T10:11:01.073Z,1.30
2023-05-10T10:12:02.914Z,1.43
2023-05-10T10:13:04.711Z,1.53
2023-05-10T10:14:06.398Z,1.59
2023-05-10T10:15:08.104Z,1.45
2023-05-10T10:16:10.817Z,1.42
2023-05-10T10:17:12.629Z,1.47
2023-05-10T10:18:14.438Z,1.21
2023-05-10T10:19:16.241Z,1.18
2023-05-10T10:20:18.590Z,1.03
2023-05-10T10:21:20.441Z,1.46
2023-05-10T10:22:22.270Z,1.18
2023-05-10T10:23:24.093Z,1.45
2023-05-10T10:24:25.907Z,1.19
2023-05-10T10:25:27.712Z,1.29
2023-05-10T10:26:29.496Z,1.35
2023-05-10T10:27:31.229Z,1.21
2023-05-10T10:28:32.933Z,1.31
2023-05-10T10:29:34.754Z,1.88
2023-05-10T10:30:36.669Z,1.66
2023-05-10T10:31:38.490Z,1.49
2023-05-10T10:32:40.380Z,1.49
2023-05-10T10:33:42.059Z,1.43
2023-05-10T10:34:43.873Z,1.93
2023-05-10T10:35:45.567Z,1.53
2023-05-10T10:36:47.462Z,1.59
2023-05-10T10:37:49.297Z,1.54
2023-05-10T10:38:51.081Z,1.65
2023-05-10T10:39:52.886Z,1.36
2023-05-10T10:40:54.689Z,1.48
2023-05-10T10:41:56.493Z,1.73
2023-05-10T10:42:58.320Z,1.20
2023-05-10T10:44:00.123Z,1.15
2023-05-10T10:45:01.919Z,0.97
2023-05-10T10:46:03.917Z,1.43
2023-05-10T10:47:05.848Z,1.77
2023-05-10T10:48:07.882Z,3.44
2023-05-10T10:49:09.737Z,4.54
2023-05-10T10:50:11.728Z,6.79
2023-05-10T10:51:13.550Z,7.49
2023-05-10T10:52:15.257Z,8.28
2023-05-10T10:53:17.141Z,7.97
2023-05-10T10:54:18.992Z,7.75
2023-05-10T10:55:20.863Z,7.00
2023-05-10T10:56:22.695Z,6.73
2023-05-10T10:57:24.388Z,5.48
2023-05-10T10:58:26.126Z,5.11
2023-05-10T10:59:27.938Z,7.53
2023-05-10T11:00:29.729Z,7.24
2023-05-10T11:01:31.621Z,7.51
2023-05-10T11:02:33.585Z,7.01
2023-05-10T11:03:35.349Z,6.79
2023-05-10T11:04:37.099Z,5.92
2023-05-10T11:05:38.857Z,5.29
2023-05-10T11:06:40.634Z,5.05
2023-05-10T11:07:42.331Z,4.96
2023-05-10T11:08:44.167Z,6.66
2023-05-10T11:09:45.948Z,6.07
2023-05-10T11:10:47.743Z,5.99
2023-05-10T11:11:49.571Z,7.07
2023-05-10T11:12:51.358Z,6.13
2023-05-10T11:13:53.172Z,5.78
2023-05-10T11:14:54.979Z,5.52
2023-05-10T11:15:56.770Z,5.93
2023-05-10T11:16:58.599Z,7.40
2023-05-10T11:18:00.412Z,7.42
2023-05-10T11:19:02.329Z,6.48
2023-05-10T11:20:04.175Z,5.95
2023-05-10T11:21:06.009Z,5.80
2023-05-10T11:22:07.889Z,4.99
2023-05-10T11:23:09.697Z,4.81
2023-05-10T11:24:11.510Z,5.19
2023-05-10T11:25:13.201Z,4.62
2023-05-10T11:26:15.302Z,4.49
2023-05-10T11:27:17.102Z,4.60
2023-05-10T11:28:18.953Z,4.68
2023-05-10T11:29:20.756Z,4.08
2023-05-10T11:30:22.686Z,4.19
2023-05-10T11:31:24.544Z,2.28
2023-05-10T11:32:26.403Z,1.70
2023-05-10T11:33:28.178Z,1.82
2023-05-10T11:34:29.994Z,1.70
2023-05-10T11:35:31.807Z,1.59
2023-05-10T11:36:33.662Z,1.57
2023-05-10T11:37:35.408Z,1.53
2023-05-10T11:38:37.197Z,1.55
2023-05-10T11:39:39.058Z,1.77
2023-05-10T11:40:40.869Z,1.45
2023-05-10T11:41:43.110Z,1.26
2023-05-10T11:42:44.953Z,1.65
2023-05-10T11:43:46.732Z,1.31
2023-05-10T11:44:48.567Z,1.39
2023-05-10T11:45:50.376Z,1.55
2023-05-10T11:46:52.171Z,1.25
2023-05-10T11:47:53.977Z,1.31
2023-05-10T11:48:55.718Z,1.49
2023-05-10T11:49:57.441Z,1.31
2023-05-10T11:50:59.222Z,1.30
2023-05-10T11:52:00.917Z,1.65
2023-05-10T11:53:02.616Z,2.75
2023-05-10T11:54:04.400Z,8.00
2023-05-10T11:55:06.199Z,6.04
2023-05-10T11:56:08.118Z,4.61
2023-05-10T11:57:09.932Z,3.03
2023-05-10T11:58:11.715Z,3.33
2023-05-10T11:59:13.539Z,2.81
2023-05-10T12:00:16.224Z,4.15
2023-05-10T12:01:18.056Z,5.45
2023-05-10T12:02:19.891Z,8.03
2023-05-10T12:03:21.819Z,7.64
2023-05-10T12:04:23.750Z,4.79
2023-05-10T12:05:25.584Z,3.01
2023-05-10T12:06:27.362Z,3.57
2023-05-10T12:07:29.155Z,3.18
2023-05-10T12:08:30.872Z,2.11
2023-05-10T12:09:43.426Z,2.02
2023-05-10T12:10:36.201Z,1.62
2023-05-10T12:11:37.974Z,1.74
2023-05-10T12:12:39.782Z,1.83
2023-05-10T12:13:41.596Z,1.82
2023-05-10T12:14:43.402Z,2.99
2023-05-10T12:15:45.130Z,2.51
2023-05-10T12:16:46.969Z,2.46
2023-05-10T12:17:48.732Z,1.88
2023-05-10T12:18:50.685Z,1.97
2023-05-10T12:19:52.456Z,2.02
2023-05-10T12:20:54.277Z,2.15
2023-05-10T12:21:58.827Z,5.32
2023-05-10T12:23:00.864Z,3.14
2023-05-10T12:24:02.656Z,1.65
2023-05-10T12:25:04.439Z,2.38
2023-05-10T12:26:06.352Z,2.44
2023-05-10T12:27:08.138Z,2.87
2023-05-10T12:28:10.071Z,2.14
2023-05-10T12:29:11.918Z,2.03
2023-05-10T12:30:14.131Z,1.99
2023-05-10T12:31:16.210Z,1.73
2023-05-10T12:32:18.000Z,1.52
2023-05-10T12:33:19.713Z,1.49
2023-05-10T12:34:21.492Z,1.42
2023-05-10T12:35:23.292Z,1.37
2023-05-10T12:36:25.107Z,2.59
2023-05-10T12:37:26.888Z,2.76
2023-05-10T12:38:28.705Z,3.25
2023-05-10T12:39:30.425Z,4.25
2023-05-10T12:40:32.236Z,3.43
2023-05-10T12:41:34.050Z,3.77
2023-05-10T12:42:35.859Z,3.08
2023-05-10T12:43:37.651Z,2.74
2023-05-10T12:44:39.447Z,1.53
2023-05-10T12:45:41.278Z,3.40
2023-05-10T12:46:43.080Z,3.61
2023-05-10T12:47:44.911Z,3.35
2023-05-10T12:48:46.654Z,2.69
2023-05-10T12:49:48.343Z,2.68
2023-05-10T12:50:50.137Z,3.53
2023-05-10T12:51:51.994Z,3.67
2023-05-10T12:52:53.773Z,4.06
2023-05-10T12:53:55.477Z,3.73
2023-05-10T12:54:57.166Z,2.92
2023-05-10T12:55:58.970Z,1.90
2023-05-10T12:57:00.793Z,1.30
2023-05-10T12:58:02.603Z,1.49
2023-05-10T12:59:04.487Z,1.65
2023-05-10T13:00:06.777Z,1.26
2023-05-10T13:01:08.735Z,1.59
2023-05-10T13:02:10.474Z,2.55
2023-05-10T13:03:12.162Z,6.59
2023-05-10T13:04:13.884Z,8.96
2023-05-10T13:05:15.560Z,11.36
2023-05-10T13:06:17.535Z,18.80
2023-05-10T13:07:19.345Z,20.91
2023-05-10T13:08:21.158Z,22.83
2023-05-10T13:09:22.835Z,9.95
2023-05-10T13:10:24.633Z,7.12
2023-05-10T13:11:26.408Z,8.32
2023-05-10T13:12:28.215Z,6.57
2023-05-10T13:13:29.988Z,3.90
2023-05-10T13:14:31.800Z,4.33
2023-05-10T13:15:33.571Z,3.31
2023-05-10T13:16:35.442Z,2.48
2023-05-10T13:17:37.378Z,2.11
2023-05-10T13:18:39.070Z,1.94
2023-05-10T13:19:40.827Z,2.38
2023-05-10T13:20:42.598Z,2.67
2023-05-10T13:21:44.364Z,2.23
2023-05-10T13:22:46.083Z,2.41
2023-05-10T13:23:47.887Z,2.62
2023-05-10T13:24:49.650Z,3.35
2023-05-10T13:25:51.429Z,3.99
2023-05-10T13:26:53.207Z,3.76
2023-05-10T13:27:54.997Z,4.58
2023-05-10T13:28:56.832Z,2.23
2023-05-10T13:29:58.593Z,1.95
2023-05-10T13:31:00.420Z,2.29
2023-05-10T13:32:02.148Z,2.64
2023-05-10T13:33:04.030Z,3.41
2023-05-10T13:34:05.880Z,2.79
2023-05-10T13:35:07.562Z,2.83
2023-05-10T13:36:09.452Z,3.12
2023-05-10T13:37:11.285Z,2.69
2023-05-10T13:38:13.075Z,3.36
2023-05-10T13:39:14.869Z,3.18
2023-05-10T13:40:17.244Z,2.62
2023-05-10T13:41:19.146Z,2.43
2023-05-10T13:42:20.923Z,4.51
2023-05-10T13:43:22.728Z,3.22